createdAt,value
2018-05-06T00:00:07.098Z,98638.48
2018-05-06T00:00:38.697Z,98641.44
2018-05-06T00:01:10.281Z,98642.29
2018-05-06T00:01:41.886Z,98641.02
2018-05-06T00:02:13.459Z,98638.88
2018-05-06T00:02:45.066Z,98640.58
2018-05-06T00:03:16.676Z,98638.45
2018-05-06T00:03:48.258Z,98640.62
2018-05-06T00:04:19.902Z,98641.44
2018-05-06T00:04:51.472Z,98640.62
2018-05-06T00:05:23.058Z,98640.62
2018-05-06T00:05:54.647Z,98645.65
2018-05-06T00:06:26.221Z,98645.18
2018-05-06T00:06:57.798Z,98644.32
2018-05-06T00:07:29.393Z,98645.98
2018-05-06T00:08:00.982Z,98645.94
2018-05-06T00:08:32.559Z,98643.81
2018-05-06T00:09:04.161Z,98646.80
2018-05-06T00:09:35.770Z,98643.42
2018-05-06T00:10:07.353Z,98638.69
2018-05-06T00:10:38.998Z,98648.50
2018-05-06T00:11:10.578Z,98640.81
2018-05-06T00:11:42.177Z,98639.11
2018-05-06T00:12:13.753Z,98642.95
2018-05-06T00:12:45.353Z,98643.38
2018-05-06T00:13:16.962Z,98641.25
2018-05-06T00:13:48.558Z,98637.41
2018-05-06T00:14:20.178Z,98645.52
2018-05-06T00:14:51.759Z,98640.81
2018-05-06T00:15:23.348Z,98646.78
2018-05-06T00:15:54.990Z,98645.08
2018-05-06T00:16:26.594Z,98643.81
2018-05-06T00:16:58.205Z,98644.66
2018-05-06T00:17:29.794Z,98639.11
2018-05-06T00:18:01.370Z,98640.39
2018-05-06T00:18:32.983Z,98647.64
2018-05-06T00:19:04.610Z,98641.67
2018-05-06T00:19:36.237Z,98642.09
2018-05-06T00:20:07.831Z,98646.37
2018-05-06T00:20:39.477Z,98638.36
2018-05-06T00:21:11.048Z,98643.05
2018-05-06T00:21:42.630Z,98643.05
2018-05-06T00:22:14.233Z,98644.33
2018-05-06T00:22:45.840Z,98643.91
2018-05-06T00:23:17.436Z,98640.49
2018-05-06T00:23:49.005Z,98645.17
2018-05-06T00:24:20.632Z,98646.88
2018-05-06T00:24:52.229Z,98640.95
2018-05-06T00:25:23.897Z,98649.45
2018-05-06T00:25:55.491Z,98630.44
2018-05-06T00:26:27.072Z,98643.09
2018-05-06T00:26:58.640Z,98643.09
2018-05-06T00:27:30.232Z,98642.24
2018-05-06T00:28:01.838Z,98637.59
2018-05-06T00:28:33.453Z,98647.41
2018-05-06T00:29:05.064Z,98645.70
2018-05-06T00:29:36.674Z,98644.00
2018-05-06T00:30:08.258Z,98642.33
2018-05-06T00:30:39.906Z,98649.58
2018-05-06T00:31:11.510Z,98641.05
2018-05-06T00:31:43.104Z,98646.55
2018-05-06T00:32:14.714Z,98643.14
2018-05-06T00:32:46.298Z,98643.14
2018-05-06T00:33:17.897Z,98641.86
2018-05-06T00:33:49.493Z,98644.84
2018-05-06T00:34:21.064Z,98645.28
2018-05-06T00:34:52.657Z,98641.44
2018-05-06T00:35:24.266Z,98644.84
2018-05-06T00:35:55.919Z,98645.70
2018-05-06T00:36:27.502Z,98643.99
2018-05-06T00:36:59.096Z,98642.28
2018-05-06T00:37:30.693Z,98643.09
2018-05-06T00:38:02.288Z,98640.53
2018-05-06T00:38:33.894Z,98639.68
2018-05-06T00:39:05.481Z,98637.98
2018-05-06T00:39:37.092Z,98640.11
2018-05-06T00:40:08.684Z,98638.83
2018-05-06T00:40:40.266Z,98639.63
2018-05-06T00:41:11.914Z,98635.38
2018-05-06T00:41:43.481Z,98632.39
2018-05-06T00:42:15.061Z,98639.20
2018-05-06T00:42:46.649Z,98638.83
2018-05-06T00:43:18.268Z,98636.65
2018-05-06T00:43:49.836Z,98639.59
2018-05-06T00:44:21.438Z,98635.31
2018-05-06T00:44:53.049Z,98639.16
2018-05-06T00:45:24.634Z,98642.16
2018-05-06T00:45:56.245Z,98634.08
2018-05-06T00:46:27.908Z,98639.20
2018-05-06T00:46:59.476Z,98640.06
2018-05-06T00:47:31.086Z,98639.67
2018-05-06T00:48:02.674Z,98643.48
2018-05-06T00:48:34.276Z,98644.33
2018-05-06T00:49:05.858Z,98638.39
2018-05-06T00:49:37.446Z,98639.25
2018-05-06T00:50:09.036Z,98643.91
2018-05-06T00:50:40.631Z,98638.41
2018-05-06T00:51:12.217Z,98634.61
2018-05-06T00:51:43.862Z,98639.25
2018-05-06T00:52:15.460Z,98640.11
2018-05-06T00:52:47.040Z,98637.55
2018-05-06T00:53:18.635Z,98638.41
2018-05-06T00:53:50.246Z,98646.55
2018-05-06T00:54:21.841Z,98642.70
2018-05-06T00:54:53.422Z,98646.55
2018-05-06T00:55:25.026Z,98646.55
2018-05-06T00:55:56.625Z,98643.09
2018-05-06T00:56:28.195Z,98641.00
2018-05-06T00:56:59.854Z,98644.41
2018-05-06T00:57:31.457Z,98646.55
2018-05-06T00:58:03.042Z,98646.55
2018-05-06T00:58:34.625Z,98646.13
2018-05-06T00:59:06.192Z,98645.27
2018-05-06T00:59:37.770Z,98641.44
2018-05-06T01:00:09.378Z,98645.70
2018-05-06T01:00:40.965Z,98641.86
2018-05-06T01:01:12.536Z,98643.56
2018-05-06T01:01:44.146Z,98643.98
2018-05-06T01:02:15.734Z,98643.52
2018-05-06T01:02:47.325Z,98647.74
2018-05-06T01:03:18.933Z,98647.78
2018-05-06T01:03:50.528Z,98644.84
2018-05-06T01:04:22.118Z,98651.62
2018-05-06T01:04:53.778Z,98653.75
2018-05-06T01:05:25.372Z,98651.58
2018-05-06T01:05:56.986Z,98651.19
2018-05-06T01:06:28.605Z,98650.34
2018-05-06T01:07:00.200Z,98657.60
2018-05-06T01:07:31.782Z,98650.77
2018-05-06T01:08:03.355Z,98653.75
2018-05-06T01:08:34.962Z,98654.56
2018-05-06T01:09:06.556Z,98655.41
2018-05-06T01:09:38.153Z,98652.01
2018-05-06T01:10:09.777Z,98651.58
2018-05-06T01:10:41.410Z,98652.42
2018-05-06T01:11:12.982Z,98655.41
2018-05-06T01:11:44.557Z,98658.36
2018-05-06T01:12:16.127Z,98652.81
2018-05-06T01:12:47.734Z,98652.39
2018-05-06T01:13:19.342Z,98653.66
2018-05-06T01:13:50.934Z,98655.75
2018-05-06T01:14:22.533Z,98654.04
2018-05-06T01:14:54.122Z,98653.61
2018-05-06T01:15:25.746Z,98658.69
2018-05-06T01:15:57.313Z,98656.12
2018-05-06T01:16:28.914Z,98659.92
2018-05-06T01:17:00.506Z,98656.94
2018-05-06T01:17:32.096Z,98659.50
2018-05-06T01:18:03.726Z,98653.95
2018-05-06T01:18:35.333Z,98662.91
2018-05-06T01:19:07.007Z,98661.58
2018-05-06T01:19:38.542Z,98662.05
2018-05-06T01:20:10.126Z,98657.75
2018-05-06T01:20:41.700Z,98656.51
2018-05-06T01:21:13.298Z,98660.30
2018-05-06T01:21:44.868Z,98661.16
2018-05-06T01:22:16.460Z,98661.63
2018-05-06T01:22:48.046Z,98662.44
2018-05-06T01:23:19.664Z,98662.86
2018-05-06T01:23:51.265Z,98657.73
2018-05-06T01:24:22.860Z,98664.13
2018-05-06T01:24:54.450Z,98665.84
2018-05-06T01:25:26.053Z,98658.16
2018-05-06T01:25:57.638Z,98653.91
2018-05-06T01:26:29.218Z,98661.20
2018-05-06T01:27:00.821Z,98659.06
2018-05-06T01:27:32.402Z,98656.51
2018-05-06T01:28:03.972Z,98661.20
2018-05-06T01:28:35.633Z,98660.34
2018-05-06T01:29:07.228Z,98662.95
2018-05-06T01:29:38.810Z,98662.95
2018-05-06T01:30:10.399Z,98664.66
2018-05-06T01:30:41.982Z,98658.69
2018-05-06T01:31:13.644Z,98661.72
2018-05-06T01:31:45.239Z,98662.75
2018-05-06T01:32:16.854Z,98661.30
2018-05-06T01:32:48.457Z,98661.73
2018-05-06T01:33:20.042Z,98663.43
2018-05-06T01:33:51.621Z,98660.88
2018-05-06T01:34:23.268Z,98664.70
2018-05-06T01:34:54.850Z,98665.98
2018-05-06T01:35:26.447Z,98665.18
2018-05-06T01:35:58.054Z,98665.61
2018-05-06T01:36:29.632Z,98668.17
2018-05-06T01:37:01.219Z,98668.17
2018-05-06T01:37:32.801Z,98665.61
2018-05-06T01:38:04.386Z,98672.01
2018-05-06T01:38:35.985Z,98667.36
2018-05-06T01:39:07.581Z,98672.48
2018-05-06T01:39:39.201Z,98671.20
2018-05-06T01:40:10.781Z,98670.39
2018-05-06T01:40:42.348Z,98669.97
2018-05-06T01:41:13.930Z,98666.98
2018-05-06T01:41:45.506Z,98667.87
2018-05-06T01:42:17.109Z,98669.59
2018-05-06T01:42:48.719Z,98670.01
2018-05-06T01:43:20.302Z,98669.58
2018-05-06T01:43:51.878Z,98669.58
2018-05-06T01:44:23.482Z,98665.31
2018-05-06T01:44:55.116Z,98671.28
2018-05-06T01:45:26.711Z,98665.36
2018-05-06T01:45:58.295Z,98667.92
2018-05-06T01:46:29.902Z,98662.80
2018-05-06T01:47:01.500Z,98666.25
2018-05-06T01:47:33.106Z,98664.50
2018-05-06T01:48:04.680Z,98668.77
2018-05-06T01:48:36.266Z,98664.50
2018-05-06T01:49:07.873Z,98667.03
2018-05-06T01:49:39.508Z,98668.73
2018-05-06T01:50:11.118Z,98668.34
2018-05-06T01:50:42.726Z,98666.17
2018-05-06T01:51:14.395Z,98664.47
2018-05-06T01:51:45.977Z,98649.72
2018-05-06T01:52:17.586Z,98661.90
2018-05-06T01:52:49.211Z,98665.73
2018-05-06T01:53:20.793Z,98664.42
2018-05-06T01:53:52.389Z,98661.47
2018-05-06T01:54:23.968Z,98664.38
2018-05-06T01:54:55.629Z,98665.19
2018-05-06T01:55:27.220Z,98667.73
2018-05-06T01:55:58.830Z,98665.13
2018-05-06T01:56:30.424Z,98661.72
2018-05-06T01:57:02.014Z,98664.23
2018-05-06T01:57:33.594Z,98663.38
2018-05-06T01:58:05.202Z,98668.08
2018-05-06T01:58:36.809Z,98663.38
2018-05-06T01:59:08.414Z,98667.64
2018-05-06T01:59:40.052Z,98667.17
2018-05-06T02:00:11.714Z,98662.05
2018-05-06T02:00:43.315Z,98665.89
2018-05-06T02:01:14.896Z,98671.34
2018-05-06T02:01:46.485Z,98665.42
2018-05-06T02:02:18.086Z,98665.42
2018-05-06T02:02:49.673Z,98670.53
2018-05-06T02:03:21.264Z,98670.11
2018-05-06T02:03:52.853Z,98664.13
2018-05-06T02:04:24.465Z,98669.21
2018-05-06T02:04:56.069Z,98667.08
2018-05-06T02:05:27.714Z,98668.36
2018-05-06T02:05:59.321Z,98663.23
2018-05-06T02:06:30.926Z,98662.38
2018-05-06T02:07:02.509Z,98670.88
2018-05-06T02:07:34.086Z,98670.45
2018-05-06T02:08:05.688Z,98666.13
2018-05-06T02:08:37.257Z,98660.16
2018-05-06T02:09:08.862Z,98658.02
2018-05-06T02:09:40.456Z,98662.67
2018-05-06T02:10:12.039Z,98663.95
2018-05-06T02:10:43.670Z,98661.81
2018-05-06T02:11:15.269Z,98657.08
2018-05-06T02:11:46.873Z,98663.95
2018-05-06T02:12:18.454Z,98667.31
2018-05-06T02:12:50.042Z,98661.81
2018-05-06T02:13:21.650Z,98664.80
2018-05-06T02:13:53.244Z,98659.25
2018-05-06T02:14:24.856Z,98660.58
2018-05-06T02:14:56.465Z,98657.55
2018-05-06T02:15:28.050Z,98654.98
2018-05-06T02:15:59.655Z,98650.29
2018-05-06T02:16:31.261Z,98660.53
2018-05-06T02:17:02.846Z,98655.79
2018-05-06T02:17:34.412Z,98650.20
2018-05-06T02:18:06.010Z,98656.64
2018-05-06T02:18:37.593Z,98655.36
2018-05-06T02:19:09.202Z,98661.72
2018-05-06T02:19:40.782Z,98652.75
2018-05-06T02:20:12.417Z,98648.06
2018-05-06T02:20:44.022Z,98653.60
2018-05-06T02:21:15.626Z,98647.59
2018-05-06T02:21:47.214Z,98648.48
2018-05-06T02:22:18.794Z,98656.97
2018-05-06T02:22:50.365Z,98656.97
2018-05-06T02:23:21.956Z,98657.39
2018-05-06T02:23:53.548Z,98661.19
2018-05-06T02:24:25.159Z,98659.43
2018-05-06T02:24:56.798Z,98651.70
2018-05-06T02:25:28.378Z,98663.23
2018-05-06T02:25:59.958Z,98668.39
2018-05-06T02:26:31.582Z,98659.44
2018-05-06T02:27:03.162Z,98664.56
2018-05-06T02:27:34.751Z,98663.27
2018-05-06T02:28:06.370Z,98663.23
2018-05-06T02:28:37.950Z,98664.97
2018-05-06T02:29:09.517Z,98664.08
2018-05-06T02:29:41.120Z,98666.69
2018-05-06T02:30:12.723Z,98668.82
2018-05-06T02:30:44.335Z,98667.97
2018-05-06T02:31:15.941Z,98666.27
2018-05-06T02:31:47.574Z,98668.01
2018-05-06T02:32:19.170Z,98661.14
2018-05-06T02:32:50.760Z,98663.70
2018-05-06T02:33:22.369Z,98667.55
2018-05-06T02:33:53.973Z,98671.05
2018-05-06T02:34:25.593Z,98668.11
2018-05-06T02:34:57.197Z,98671.06
2018-05-06T02:35:28.801Z,98671.06
2018-05-06T02:36:00.391Z,98672.80
2018-05-06T02:36:31.960Z,98673.66
2018-05-06T02:37:03.612Z,98670.68
2018-05-06T02:37:35.195Z,98673.24
2018-05-06T02:38:06.780Z,98673.72
2018-05-06T02:38:38.385Z,98672.86
2018-05-06T02:39:09.952Z,98675.37
2018-05-06T02:39:41.544Z,98674.95
2018-05-06T02:40:13.151Z,98675.75
2018-05-06T02:40:44.732Z,98669.30
2018-05-06T02:41:47.590Z,98673.95
2018-05-06T02:42:19.247Z,98673.51
2018-05-06T02:42:50.858Z,98672.19
2018-05-06T02:43:22.470Z,98680.73
2018-05-06T02:43:54.054Z,98676.07
2018-05-06T02:44:25.652Z,98672.23
2018-05-06T02:44:57.247Z,98670.95
2018-05-06T02:45:28.849Z,98680.73
2018-05-06T02:46:00.468Z,98673.90
2018-05-06T02:46:32.054Z,98669.63
2018-05-06T02:47:03.632Z,98676.50
2018-05-06T02:47:35.290Z,98673.47
2018-05-06T02:48:06.882Z,98677.35
2018-05-06T02:48:38.463Z,98677.35
2018-05-06T02:49:10.033Z,98672.66
2018-05-06T02:49:41.624Z,98673.95
2018-05-06T02:50:13.223Z,98668.44
2018-05-06T02:50:44.806Z,98670.53
2018-05-06T02:51:16.391Z,98643.98
2018-05-06T02:51:48.074Z,98668.39
2018-05-06T02:52:19.634Z,98670.52
2018-05-06T02:52:51.287Z,98677.78
2018-05-06T02:53:22.890Z,98670.91
2018-05-06T02:53:54.499Z,98674.75
2018-05-06T02:54:26.092Z,98664.98
2018-05-06T02:54:57.702Z,98667.13
2018-05-06T02:55:29.305Z,98667.97
2018-05-06T02:56:00.909Z,98668.39
2018-05-06T02:56:32.522Z,98676.03
2018-05-06T02:57:04.126Z,98669.63
2018-05-06T02:57:35.732Z,98666.64
2018-05-06T02:58:07.332Z,98674.33
2018-05-06T02:58:38.928Z,98667.48
2018-05-06T02:59:10.542Z,98665.83
2018-05-06T02:59:42.150Z,98667.07
2018-05-06T03:00:13.744Z,98672.23
2018-05-06T03:00:45.380Z,98670.10
2018-05-06T03:01:17.002Z,98673.94
2018-05-06T03:01:48.594Z,98676.93
2018-05-06T03:02:20.181Z,98671.76
2018-05-06T03:02:51.758Z,98676.41
2018-05-06T03:03:23.338Z,98677.25
2018-05-06T03:03:54.977Z,98680.61
2018-05-06T03:04:26.566Z,98671.21
2018-05-06T03:04:58.180Z,98681.03
2018-05-06T03:05:29.755Z,98677.19
2018-05-06T03:06:01.377Z,98679.38
2018-05-06T03:06:32.958Z,98673.77
2018-05-06T03:07:04.555Z,98677.14
2018-05-06T03:07:36.137Z,98680.55
2018-05-06T03:08:07.737Z,98673.73
2018-05-06T03:08:39.345Z,98675.85
2018-05-06T03:09:10.915Z,98677.56
2018-05-06T03:09:42.498Z,98674.58
2018-05-06T03:10:14.141Z,98672.45
2018-05-06T03:10:45.735Z,98670.73
2018-05-06T03:11:17.349Z,98673.73
2018-05-06T03:11:48.963Z,98673.34
2018-05-06T03:12:20.546Z,98673.82
2018-05-06T03:12:52.202Z,98666.52
2018-05-06T03:13:23.786Z,98670.80
2018-05-06T03:13:55.359Z,98668.27
2018-05-06T03:14:26.943Z,98671.69
2018-05-06T03:14:58.527Z,98666.56
2018-05-06T03:15:30.116Z,98674.22
2018-05-06T03:16:01.733Z,98670.84
2018-05-06T03:16:33.338Z,98675.55
2018-05-06T03:17:04.932Z,98672.14
2018-05-06T03:17:36.542Z,98670.86
2018-05-06T03:18:08.157Z,98667.83
2018-05-06T03:18:39.724Z,98666.55
2018-05-06T03:19:11.330Z,98666.97
2018-05-06T03:19:42.908Z,98669.95
2018-05-06T03:20:14.506Z,98670.39
2018-05-06T03:20:46.094Z,98672.55
2018-05-06T03:21:17.696Z,98668.70
2018-05-06T03:21:49.282Z,98667.01
2018-05-06T03:22:20.916Z,98673.39
2018-05-06T03:22:52.521Z,98665.27
2018-05-06T03:23:24.140Z,98674.69
2018-05-06T03:23:55.708Z,98667.82
2018-05-06T03:24:27.276Z,98665.69
2018-05-06T03:24:58.874Z,98664.83
2018-05-06T03:25:30.458Z,98667.80
2018-05-06T03:26:02.046Z,98670.83
2018-05-06T03:26:33.630Z,98666.53
2018-05-06T03:27:05.233Z,98667.80
2018-05-06T03:27:36.806Z,98674.25
2018-05-06T03:28:08.417Z,98669.94
2018-05-06T03:28:40.036Z,98668.23
2018-05-06T03:29:11.692Z,98666.94
2018-05-06T03:29:43.286Z,98673.77
2018-05-06T03:30:14.875Z,98675.48
2018-05-06T03:30:46.496Z,98672.91
2018-05-06T03:31:18.102Z,98673.34
2018-05-06T03:31:49.685Z,98674.63
2018-05-06T03:32:21.266Z,98672.09
2018-05-06T03:32:52.850Z,98669.98
2018-05-06T03:33:24.441Z,98675.10
2018-05-06T03:33:56.073Z,98670.84
2018-05-06T03:34:27.668Z,98675.51
2018-05-06T03:34:59.279Z,98675.08
2018-05-06T03:35:30.848Z,98677.21
2018-05-06T03:36:02.454Z,98675.55
2018-05-06T03:36:34.028Z,98670.00
2018-05-06T03:37:05.634Z,98672.95
2018-05-06T03:37:37.245Z,98680.67
2018-05-06T03:38:08.836Z,98678.49
2018-05-06T03:38:40.441Z,98678.06
2018-05-06T03:39:12.052Z,98676.38
2018-05-06T03:39:43.620Z,98676.78
2018-05-06T03:40:15.226Z,98677.68
2018-05-06T03:40:46.801Z,98675.13
2018-05-06T03:41:18.378Z,98678.89
2018-05-06T03:41:49.948Z,98676.99
2018-05-06T03:42:21.530Z,98679.59
2018-05-06T03:42:53.096Z,98678.79
2018-05-06T03:43:24.737Z,98677.19
2018-05-06T03:43:56.326Z,98678.05
2018-05-06T03:44:27.910Z,98684.47
2018-05-06T03:44:59.490Z,98671.28
2018-05-06T03:45:31.094Z,98679.77
2018-05-06T03:46:02.682Z,98678.09
2018-05-06T03:46:34.262Z,98679.27
2018-05-06T03:47:05.853Z,98682.69
2018-05-06T03:47:37.457Z,98681.03
2018-05-06T03:48:09.028Z,98683.59
2018-05-06T03:48:40.596Z,98686.11
2018-05-06T03:49:12.178Z,98685.30
2018-05-06T03:49:43.810Z,98685.73
2018-05-06T03:50:15.394Z,98682.74
2018-05-06T03:50:46.997Z,98691.75
2018-05-06T03:51:18.593Z,98688.31
2018-05-06T03:51:50.201Z,98691.30
2018-05-06T03:52:21.806Z,98685.36
2018-05-06T03:52:53.390Z,98688.36
2018-05-06T03:53:24.975Z,98694.80
2018-05-06T03:53:56.547Z,98694.38
2018-05-06T03:54:28.154Z,98693.10
2018-05-06T03:54:59.788Z,98690.97
2018-05-06T03:55:31.389Z,98686.73
2018-05-06T03:56:02.965Z,98689.78
2018-05-06T03:56:34.565Z,98690.59
2018-05-06T03:57:06.174Z,98693.58
2018-05-06T03:57:37.785Z,98691.48
2018-05-06T03:58:09.370Z,98691.49
2018-05-06T03:58:40.963Z,98690.22
2018-05-06T03:59:12.537Z,98689.83
2018-05-06T03:59:44.144Z,98689.84
2018-05-06T04:00:15.781Z,98691.55
2018-05-06T04:00:47.390Z,98687.74
2018-05-06T04:01:18.994Z,98691.20
2018-05-06T04:01:50.642Z,98690.36
2018-05-06T04:02:22.226Z,98696.80
2018-05-06T04:02:53.814Z,98695.95
2018-05-06T04:03:25.415Z,98698.08
2018-05-06T04:03:57.001Z,98692.53
2018-05-06T04:04:28.602Z,98698.51
2018-05-06T04:05:00.180Z,98696.38
2018-05-06T04:05:31.757Z,98702.77
2018-05-06T04:06:03.368Z,98701.96
2018-05-06T04:06:34.969Z,98698.13
2018-05-06T04:07:06.551Z,98701.12
2018-05-06T04:07:38.137Z,98707.13
2018-05-06T04:08:09.718Z,98701.58
2018-05-06T04:08:41.298Z,98702.02
2018-05-06T04:09:12.883Z,98698.17
2018-05-06T04:09:44.554Z,98702.05
2018-05-06T04:10:16.138Z,98698.59
2018-05-06T04:10:47.753Z,98701.16
2018-05-06T04:11:19.406Z,98697.33
2018-05-06T04:11:51.054Z,98699.41
2018-05-06T04:12:22.580Z,98695.95
2018-05-06T04:12:54.189Z,98693.66
2018-05-06T04:13:25.770Z,98700.67
2018-05-06T04:13:57.341Z,98696.52
2018-05-06T04:14:28.922Z,98697.05
2018-05-06T04:15:00.528Z,98699.62
2018-05-06T04:15:32.176Z,98698.86
2018-05-06T04:16:03.772Z,98700.23
2018-05-06T04:16:35.412Z,98703.67
2018-05-06T04:17:06.984Z,98700.43
2018-05-06T04:17:38.562Z,98698.47
2018-05-06T04:18:10.142Z,98702.17
2018-05-06T04:18:41.710Z,98690.08
2018-05-06T04:19:13.309Z,98695.53
2018-05-06T04:19:44.904Z,98700.48
2018-05-06T04:20:16.504Z,98693.13
2018-05-06T04:20:48.104Z,98692.58
2018-05-06T04:21:19.695Z,98692.85
2018-05-06T04:21:51.322Z,98688.03
2018-05-06T04:22:22.903Z,98693.88
2018-05-06T04:22:54.559Z,98690.64
2018-05-06T04:23:26.166Z,98690.34
2018-05-06T04:23:57.795Z,98691.42
2018-05-06T04:24:29.408Z,98693.14
2018-05-06T04:25:00.999Z,98694.24
2018-05-06T04:25:32.606Z,98696.82
2018-05-06T04:26:04.199Z,98696.39
2018-05-06T04:26:35.810Z,98693.84
2018-05-06T04:27:07.408Z,98693.31
2018-05-06T04:27:38.985Z,98692.63
2018-05-06T04:28:10.573Z,98690.98
2018-05-06T04:28:42.155Z,98691.83
2018-05-06T04:29:13.748Z,98693.55
2018-05-06T04:29:45.324Z,98690.55
2018-05-06T04:30:16.937Z,98694.92
2018-05-06T04:30:48.598Z,98687.24
2018-05-06T04:31:20.165Z,98692.14
2018-05-06T04:31:51.766Z,98688.41
2018-05-06T04:32:23.393Z,98689.45
2018-05-06T04:32:54.998Z,98692.56
2018-05-06T04:33:26.602Z,98699.50
2018-05-06T04:33:58.188Z,98690.58
2018-05-06T04:34:29.757Z,98695.77
2018-05-06T04:35:01.379Z,98691.59
2018-05-06T04:35:32.953Z,98696.80
2018-05-06T04:36:04.599Z,98695.62
2018-05-06T04:36:36.186Z,98698.65
2018-05-06T04:37:07.786Z,98697.84
2018-05-06T04:37:39.374Z,98700.45
2018-05-06T04:38:10.974Z,98701.73
2018-05-06T04:38:42.544Z,98695.80
2018-05-06T04:39:14.136Z,98701.34
2018-05-06T04:39:45.775Z,98698.79
2018-05-06T04:40:17.383Z,98700.95
2018-05-06T04:40:48.968Z,98693.71
2018-05-06T04:41:20.563Z,98697.55
2018-05-06T04:41:52.294Z,98696.73
2018-05-06T04:42:23.872Z,98696.73
2018-05-06T04:42:55.453Z,98706.09
2018-05-06T04:43:27.056Z,98702.28
2018-05-06T04:43:58.632Z,98708.68
2018-05-06T04:44:30.197Z,98703.99
2018-05-06T04:45:01.849Z,98709.11
2018-05-06T04:45:33.420Z,98708.31
2018-05-06T04:46:05.026Z,98701.10
2018-05-06T04:46:36.613Z,98707.92
2018-05-06T04:47:08.181Z,98691.89
2018-05-06T04:47:39.776Z,98709.67
2018-05-06T04:48:11.353Z,98705.87
2018-05-06T04:48:42.934Z,98706.72
2018-05-06T04:49:14.500Z,98710.98
2018-05-06T04:49:46.068Z,98708.02
2018-05-06T04:50:17.697Z,98705.06
2018-05-06T04:50:49.326Z,98699.95
2018-05-06T04:51:20.931Z,98708.48
2018-05-06T04:51:52.537Z,98713.59
2018-05-06T04:52:24.150Z,98709.33
2018-05-06T04:52:55.730Z,98708.91
2018-05-06T04:53:27.327Z,98708.91
2018-05-06T04:53:58.917Z,98708.48
2018-05-06T04:54:30.518Z,98700.84
2018-05-06T04:55:02.126Z,98704.68
2018-05-06T04:55:33.775Z,98707.63
2018-05-06T04:56:05.378Z,98707.67
2018-05-06T04:56:36.962Z,98706.39
2018-05-06T04:57:08.537Z,98703.79
2018-05-06T04:57:40.152Z,98699.10
2018-05-06T04:58:11.758Z,98698.67
2018-05-06T04:58:43.362Z,98698.67
2018-05-06T04:59:14.966Z,98702.97
2018-05-06T04:59:46.574Z,98702.94
2018-05-06T05:00:18.149Z,98699.56
2018-05-06T05:00:49.787Z,98702.97
2018-05-06T05:01:21.374Z,98699.95
2018-05-06T05:01:52.971Z,98700.41
2018-05-06T05:02:24.581Z,98702.98
2018-05-06T05:02:56.156Z,98696.62
2018-05-06T05:03:27.762Z,98704.25
2018-05-06T05:03:59.374Z,98699.14
2018-05-06T05:04:30.985Z,98703.41
2018-05-06T05:05:02.566Z,98707.23
2018-05-06T05:05:34.137Z,98703.41
2018-05-06T05:06:05.758Z,98699.56
2018-05-06T05:06:37.342Z,98704.25
2018-05-06T05:07:08.918Z,98683.95
2018-05-06T05:07:40.542Z,98700.00
2018-05-06T05:08:12.145Z,98699.17
2018-05-06T05:08:43.730Z,98702.59
2018-05-06T05:09:15.329Z,98696.63
2018-05-06T05:09:46.909Z,98698.33
2018-05-06T05:10:18.518Z,98702.59
2018-05-06T05:10:50.199Z,98694.11
2018-05-06T05:11:21.742Z,98701.78
2018-05-06T05:11:53.375Z,98700.93
2018-05-06T05:12:24.958Z,98699.65
2018-05-06T05:12:56.543Z,98694.53
2018-05-06T05:13:28.149Z,98702.21
2018-05-06T05:13:59.754Z,98699.23
2018-05-06T05:14:31.358Z,98703.06
2018-05-06T05:15:02.936Z,98697.09
2018-05-06T05:15:34.537Z,98698.41
2018-05-06T05:16:06.146Z,98700.55
2018-05-06T05:16:37.730Z,98698.41
2018-05-06T05:17:09.350Z,98704.80
2018-05-06T05:17:40.930Z,98703.09
2018-05-06T05:18:12.510Z,98701.39
2018-05-06T05:18:44.101Z,98702.67
2018-05-06T05:19:15.682Z,98703.53
2018-05-06T05:19:47.281Z,98701.44
2018-05-06T05:20:18.893Z,98697.17
2018-05-06T05:20:50.530Z,98703.57
2018-05-06T05:21:22.109Z,98698.88
2018-05-06T05:21:53.689Z,98706.59
2018-05-06T05:22:25.310Z,98702.76
2018-05-06T05:22:56.942Z,98703.15
2018-05-06T05:23:28.508Z,98698.92
2018-05-06T05:24:00.087Z,98697.64
2018-05-06T05:24:31.665Z,98701.91
2018-05-06T05:25:03.256Z,98701.88
2018-05-06T05:25:34.842Z,98700.20
2018-05-06T05:26:06.428Z,98699.34
2018-05-06T05:26:38.006Z,98698.03
2018-05-06T05:27:09.609Z,98692.52
2018-05-06T05:27:41.217Z,98693.81
2018-05-06T05:28:12.828Z,98694.66
2018-05-06T05:28:44.432Z,98693.80
2018-05-06T05:29:16.042Z,98695.09
2018-05-06T05:29:47.645Z,98698.92
2018-05-06T05:30:19.304Z,98686.98
2018-05-06T05:30:50.830Z,98697.22
2018-05-06T05:31:22.411Z,98689.55
2018-05-06T05:31:53.992Z,98697.22
2018-05-06T05:32:25.593Z,98693.38
2018-05-06T05:32:57.218Z,98694.23
2018-05-06T05:33:28.793Z,98694.23
2018-05-06T05:34:00.388Z,98696.37
2018-05-06T05:34:32.025Z,98694.70
2018-05-06T05:35:03.574Z,98696.83
2018-05-06T05:35:35.280Z,98697.22
2018-05-06T05:36:06.853Z,98695.09
2018-05-06T05:36:38.448Z,98697.64
2018-05-06T05:37:10.036Z,98701.09
2018-05-06T05:37:41.608Z,98698.50
2018-05-06T05:38:13.230Z,98703.66
2018-05-06T05:38:44.829Z,98699.00
2018-05-06T05:39:16.425Z,98701.95
2018-05-06T05:39:48.010Z,98694.70
2018-05-06T05:40:19.609Z,98703.23
2018-05-06T05:40:51.213Z,98698.97
2018-05-06T05:41:22.809Z,98700.67
2018-05-06T05:41:54.457Z,98696.41
2018-05-06T05:42:26.098Z,98695.95
2018-05-06T05:42:57.660Z,98696.83
2018-05-06T05:43:29.249Z,98701.48
2018-05-06T05:44:00.848Z,98694.27
2018-05-06T05:44:32.437Z,98697.69
2018-05-06T05:45:04.042Z,98692.61
2018-05-06T05:45:35.634Z,98693.86
2018-05-06T05:46:07.248Z,98695.55
2018-05-06T05:46:38.829Z,98698.97
2018-05-06T05:47:10.418Z,98701.95
2018-05-06T05:47:42.049Z,98695.55
2018-05-06T05:48:13.618Z,98695.98
2018-05-06T05:48:45.226Z,98695.13
2018-05-06T05:49:16.818Z,98699.39
2018-05-06T05:49:48.406Z,98694.28
2018-05-06T05:50:20.004Z,98694.70
2018-05-06T05:50:51.621Z,98685.76
2018-05-06T05:51:23.251Z,98694.70
2018-05-06T05:51:54.822Z,98683.20
2018-05-06T05:52:26.406Z,98692.16
2018-05-06T05:52:58.035Z,98687.08
2018-05-06T05:53:29.622Z,98685.80
2018-05-06T05:54:01.226Z,98694.32
2018-05-06T05:54:32.805Z,98689.63
2018-05-06T05:55:04.402Z,98687.08
2018-05-06T05:55:36.008Z,98692.61
2018-05-06T05:56:07.614Z,98690.91
2018-05-06T05:56:39.277Z,98688.35
2018-05-06T05:57:10.890Z,98683.66
2018-05-06T05:57:42.479Z,98687.08
2018-05-06T05:58:14.048Z,98687.55
2018-05-06T05:58:45.630Z,98687.97
2018-05-06T05:59:17.233Z,98687.08
2018-05-06T05:59:48.841Z,98685.38
2018-05-06T06:00:20.445Z,98688.35
2018-05-06T06:00:52.048Z,98684.94
2018-05-06T06:01:23.669Z,98689.59
2018-05-06T06:01:55.342Z,98691.67
2018-05-06T06:02:26.938Z,98687.84
2018-05-06T06:02:58.514Z,98685.31
2018-05-06T06:03:30.098Z,98688.73
2018-05-06T06:04:01.702Z,98685.33
2018-05-06T06:04:33.296Z,98687.03
2018-05-06T06:05:04.880Z,98689.55
2018-05-06T06:05:36.447Z,98685.70
2018-05-06T06:06:08.041Z,98687.88
2018-05-06T06:06:39.626Z,98682.33
2018-05-06T06:07:11.281Z,98686.59
2018-05-06T06:07:42.903Z,98680.59
2018-05-06T06:08:14.499Z,98691.25
2018-05-06T06:08:46.067Z,98692.09
2018-05-06T06:09:17.666Z,98691.20
2018-05-06T06:09:49.272Z,98686.09
2018-05-06T06:10:20.872Z,98689.08
2018-05-06T06:10:52.447Z,98691.17
2018-05-06T06:11:24.221Z,98695.00